sensor_id;sensor_type;location;lat;lon;timestamp;P1;durP1;ratioP1;P2;durP2;ratioP2
76259;SDS011;65076;52.362;6.588;2023-08-06T00:01:03;7.53;;;5.25;;
76259;SDS011;65076;52.362;6.588;2023-08-06T00:03:31;10.15;;;5.05;;
76259;SDS011;65076;52.362;6.588;2023-08-06T00:05:59;7.45;;;4.45;;
76259;SDS011;65076;52.362;6.588;2023-08-06T00:08:27;7.85;;;5.22;;
76259;SDS011;65076;52.362;6.588;2023-08-06T00:10:56;9.07;;;5.40;;
76259;SDS011;65076;52.362;6.588;2023-08-06T00:13:24;9.95;;;5.18;;
76259;SDS011;65076;52.362;6.588;2023-08-06T00:15:52;8.63;;;5.20;;
76259;SDS011;65076;52.362;6.588;2023-08-06T00:18:20;8.25;;;4.50;;
76259;SDS011;65076;52.362;6.588;2023-08-06T00:20:48;9.15;;;5.53;;
76259;SDS011;65076;52.362;6.588;2023-08-06T00:23:16;10.02;;;5.50;;
76259;SDS011;65076;52.362;6.588;2023-08-06T00:25:44;8.48;;;5.40;;
76259;SDS011;65076;52.362;6.588;2023-08-06T00:28:13;9.48;;;5.45;;
76259;SDS011;65076;52.362;6.588;2023-08-06T00:30:41;8.90;;;5.65;;
76259;SDS011;65076;52.362;6.588;2023-08-06T00:33:09;7.30;;;5.10;;
76259;SDS011;65076;52.362;6.588;2023-08-06T00:35:37;9.43;;;5.18;;
76259;SDS011;65076;52.362;6.588;2023-08-06T00:38:05;6.72;;;5.30;;
76259;SDS011;65076;52.362;6.588;2023-08-06T00:40:33;8.60;;;5.32;;
76259;SDS011;65076;52.362;6.588;2023-08-06T00:43:00;6.78;;;4.80;;
76259;SDS011;65076;52.362;6.588;2023-08-06T00:45:30;8.00;;;4.95;;
76259;SDS011;65076;52.362;6.588;2023-08-06T00:48:02;7.45;;;4.93;;
76259;SDS011;65076;52.362;6.588;2023-08-06T00:50:33;6.35;;;5.22;;
76259;SDS011;65076;52.362;6.588;2023-08-06T00:53:01;8.02;;;4.68;;
76259;SDS011;65076;52.362;6.588;2023-08-06T00:55:29;7.72;;;5.22;;
76259;SDS011;65076;52.362;6.588;2023-08-06T00:57:57;8.50;;;5.43;;
76259;SDS011;65076;52.362;6.588;2023-08-06T01:00:26;8.15;;;5.38;;
76259;SDS011;65076;52.362;6.588;2023-08-06T01:02:56;9.77;;;5.95;;
76259;SDS011;65076;52.362;6.588;2023-08-06T01:05:24;7.80;;;5.13;;
76259;SDS011;65076;52.362;6.588;2023-08-06T01:07:56;7.55;;;5.22;;
76259;SDS011;65076;52.362;6.588;2023-08-06T01:10:51;8.25;;;4.85;;
76259;SDS011;65076;52.362;6.588;2023-08-06T01:13:37;8.77;;;4.55;;
76259;SDS011;65076;52.362;6.588;2023-08-06T01:16:14;8.05;;;5.53;;
76259;SDS011;65076;52.362;6.588;2023-08-06T01:18:46;10.20;;;5.30;;
76259;SDS011;65076;52.362;6.588;2023-08-06T01:21:17;7.40;;;5.05;;
76259;SDS011;65076;52.362;6.588;2023-08-06T01:26:17;8.07;;;5.40;;
76259;SDS011;65076;52.362;6.588;2023-08-06T01:28:56;8.85;;;5.85;;
76259;SDS011;65076;52.362;6.588;2023-08-06T01:31:34;11.00;;;5.95;;
76259;SDS011;65076;52.362;6.588;2023-08-06T01:34:07;7.88;;;5.65;;
76259;SDS011;65076;52.362;6.588;2023-08-06T01:36:46;9.23;;;6.18;;
76259;SDS011;65076;52.362;6.588;2023-08-06T01:39:14;8.57;;;5.07;;
76259;SDS011;65076;52.362;6.588;2023-08-06T01:41:42;11.60;;;5.47;;
76259;SDS011;65076;52.362;6.588;2023-08-06T01:44:10;7.43;;;5.47;;
76259;SDS011;65076;52.362;6.588;2023-08-06T01:46:38;7.82;;;5.32;;
76259;SDS011;65076;52.362;6.588;2023-08-06T01:49:06;8.50;;;5.88;;
76259;SDS011;65076;52.362;6.588;2023-08-06T01:51:34;7.53;;;5.22;;
76259;SDS011;65076;52.362;6.588;2023-08-06T01:54:03;8.93;;;5.20;;
76259;SDS011;65076;52.362;6.588;2023-08-06T01:56:31;9.32;;;5.53;;
76259;SDS011;65076;52.362;6.588;2023-08-06T01:58:59;8.88;;;5.45;;
76259;SDS011;65076;52.362;6.588;2023-08-06T02:01:30;10.30;;;5.53;;
76259;SDS011;65076;52.362;6.588;2023-08-06T02:03:58;7.20;;;5.13;;
76259;SDS011;65076;52.362;6.588;2023-08-06T02:06:26;8.88;;;5.65;;
76259;SDS011;65076;52.362;6.588;2023-08-06T02:08:54;8.90;;;6.10;;
76259;SDS011;65076;52.362;6.588;2023-08-06T02:11:24;8.90;;;5.43;;
76259;SDS011;65076;52.362;6.588;2023-08-06T02:13:52;8.27;;;5.07;;
76259;SDS011;65076;52.362;6.588;2023-08-06T02:16:20;8.05;;;5.93;;
76259;SDS011;65076;52.362;6.588;2023-08-06T02:18:48;8.48;;;5.40;;
76259;SDS011;65076;52.362;6.588;2023-08-06T02:21:16;8.93;;;5.28;;
76259;SDS011;65076;52.362;6.588;2023-08-06T02:23:44;8.68;;;5.13;;
76259;SDS011;65076;52.362;6.588;2023-08-06T02:26:11;7.35;;;5.22;;
76259;SDS011;65076;52.362;6.588;2023-08-06T02:28:40;8.23;;;5.60;;
76259;SDS011;65076;52.362;6.588;2023-08-06T02:31:08;12.00;;;5.57;;
76259;SDS011;65076;52.362;6.588;2023-08-06T02:33:37;7.25;;;5.50;;
76259;SDS011;65076;52.362;6.588;2023-08-06T02:36:05;10.63;;;6.05;;
76259;SDS011;65076;52.362;6.588;2023-08-06T02:38:33;9.57;;;5.82;;
76259;SDS011;65076;52.362;6.588;2023-08-06T02:41:02;10.32;;;5.78;;
76259;SDS011;65076;52.362;6.588;2023-08-06T02:43:30;8.82;;;5.57;;
76259;SDS011;65076;52.362;6.588;2023-08-06T02:46:00;8.23;;;5.35;;
76259;SDS011;65076;52.362;6.588;2023-08-06T02:48:28;8.90;;;5.75;;
76259;SDS011;65076;52.362;6.588;2023-08-06T02:50:57;7.57;;;5.28;;
76259;SDS011;65076;52.362;6.588;2023-08-06T02:53:26;8.73;;;6.22;;
76259;SDS011;65076;52.362;6.588;2023-08-06T02:55:54;9.20;;;5.75;;
76259;SDS011;65076;52.362;6.588;2023-08-06T02:58:22;11.32;;;6.13;;
76259;SDS011;65076;52.362;6.588;2023-08-06T03:01:01;12.02;;;6.90;;
76259;SDS011;65076;52.362;6.588;2023-08-06T03:03:32;13.23;;;7.03;;
76259;SDS011;65076;52.362;6.588;2023-08-06T03:06:01;9.30;;;6.63;;
76259;SDS011;65076;52.362;6.588;2023-08-06T03:08:29;11.25;;;7.40;;
76259;SDS011;65076;52.362;6.588;2023-08-06T03:10:57;9.70;;;6.53;;
76259;SDS011;65076;52.362;6.588;2023-08-06T03:13:25;11.43;;;8.20;;
76259;SDS011;65076;52.362;6.588;2023-08-06T03:15:54;12.52;;;7.95;;
76259;SDS011;65076;52.362;6.588;2023-08-06T03:18:26;13.10;;;7.72;;
76259;SDS011;65076;52.362;6.588;2023-08-06T03:20:54;12.35;;;7.60;;
76259;SDS011;65076;52.362;6.588;2023-08-06T03:23:23;13.52;;;8.32;;
76259;SDS011;65076;52.362;6.588;2023-08-06T03:25:51;12.45;;;8.13;;
76259;SDS011;65076;52.362;6.588;2023-08-06T03:28:19;13.77;;;8.85;;
76259;SDS011;65076;52.362;6.588;2023-08-06T03:30:48;10.60;;;8.15;;
76259;SDS011;65076;52.362;6.588;2023-08-06T03:33:28;13.10;;;8.02;;
76259;SDS011;65076;52.362;6.588;2023-08-06T03:35:56;14.48;;;8.82;;
76259;SDS011;65076;52.362;6.588;2023-08-06T03:38:24;13.60;;;8.68;;
76259;SDS011;65076;52.362;6.588;2023-08-06T03:40:52;13.30;;;9.10;;
76259;SDS011;65076;52.362;6.588;2023-08-06T03:43:20;14.32;;;8.88;;
76259;SDS011;65076;52.362;6.588;2023-08-06T03:45:48;15.38;;;8.85;;
76259;SDS011;65076;52.362;6.588;2023-08-06T03:48:16;12.23;;;8.38;;
76259;SDS011;65076;52.362;6.588;2023-08-06T03:50:45;14.57;;;8.82;;
76259;SDS011;65076;52.362;6.588;2023-08-06T03:53:13;15.27;;;8.48;;
76259;SDS011;65076;52.362;6.588;2023-08-06T03:55:41;19.50;;;8.15;;
76259;SDS011;65076;52.362;6.588;2023-08-06T03:58:09;14.02;;;8.38;;
76259;SDS011;65076;52.362;6.588;2023-08-06T04:00:37;12.10;;;7.82;;
76259;SDS011;65076;52.362;6.588;2023-08-06T04:03:05;16.55;;;10.65;;
76259;SDS011;65076;52.362;6.588;2023-08-06T04:05:33;14.85;;;9.25;;
76259;SDS011;65076;52.362;6.588;2023-08-06T04:08:03;13.63;;;8.48;;
76259;SDS011;65076;52.362;6.588;2023-08-06T04:10:31;12.70;;;8.35;;
76259;SDS011;65076;52.362;6.588;2023-08-06T04:12:59;15.13;;;9.20;;
76259;SDS011;65076;52.362;6.588;2023-08-06T04:15:27;12.75;;;8.75;;
76259;SDS011;65076;52.362;6.588;2023-08-06T04:17:55;14.60;;;9.05;;
76259;SDS011;65076;52.362;6.588;2023-08-06T04:20:23;13.85;;;9.02;;
76259;SDS011;65076;52.362;6.588;2023-08-06T04:22:53;15.35;;;9.00;;
76259;SDS011;65076;52.362;6.588;2023-08-06T04:25:23;13.82;;;9.10;;
76259;SDS011;65076;52.362;6.588;2023-08-06T04:27:51;14.52;;;9.40;;
76259;SDS011;65076;52.362;6.588;2023-08-06T04:30:20;13.57;;;8.95;;
76259;SDS011;65076;52.362;6.588;2023-08-06T04:32:49;12.82;;;7.82;;
76259;SDS011;65076;52.362;6.588;2023-08-06T04:35:17;12.50;;;8.68;;
76259;SDS011;65076;52.362;6.588;2023-08-06T04:37:45;13.75;;;8.65;;
76259;SDS011;65076;52.362;6.588;2023-08-06T04:40:13;13.75;;;8.43;;
76259;SDS011;65076;52.362;6.588;2023-08-06T04:42:42;14.05;;;9.15;;
76259;SDS011;65076;52.362;6.588;2023-08-06T04:45:10;13.85;;;9.55;;
76259;SDS011;65076;52.362;6.588;2023-08-06T04:47:38;13.75;;;9.23;;
76259;SDS011;65076;52.362;6.588;2023-08-06T04:50:07;12.23;;;8.63;;
76259;SDS011;65076;52.362;6.588;2023-08-06T04:52:35;17.77;;;9.32;;
76259;SDS011;65076;52.362;6.588;2023-08-06T04:55:03;14.30;;;8.25;;
76259;SDS011;65076;52.362;6.588;2023-08-06T04:57:32;14.75;;;9.32;;
76259;SDS011;65076;52.362;6.588;2023-08-06T05:00:03;12.52;;;8.93;;
76259;SDS011;65076;52.362;6.588;2023-08-06T05:02:32;13.32;;;8.93;;
76259;SDS011;65076;52.362;6.588;2023-08-06T05:05:01;12.98;;;9.18;;
76259;SDS011;65076;52.362;6.588;2023-08-06T05:07:29;15.57;;;9.25;;
76259;SDS011;65076;52.362;6.588;2023-08-06T05:09:56;14.20;;;9.43;;
76259;SDS011;65076;52.362;6.588;2023-08-06T05:12:24;13.90;;;9.52;;
76259;SDS011;65076;52.362;6.588;2023-08-06T05:14:52;14.48;;;8.70;;
76259;SDS011;65076;52.362;6.588;2023-08-06T05:17:22;13.70;;;8.80;;
76259;SDS011;65076;52.362;6.588;2023-08-06T05:19:50;11.95;;;8.38;;
76259;SDS011;65076;52.362;6.588;2023-08-06T05:22:18;11.73;;;8.55;;
76259;SDS011;65076;52.362;6.588;2023-08-06T05:24:46;12.98;;;9.18;;
76259;SDS011;65076;52.362;6.588;2023-08-06T05:27:14;13.63;;;8.45;;
76259;SDS011;65076;52.362;6.588;2023-08-06T05:29:45;15.20;;;9.55;;
76259;SDS011;65076;52.362;6.588;2023-08-06T05:32:12;12.75;;;8.50;;
76259;SDS011;65076;52.362;6.588;2023-08-06T05:34:42;14.30;;;8.80;;
76259;SDS011;65076;52.362;6.588;2023-08-06T05:37:10;16.02;;;9.20;;
76259;SDS011;65076;52.362;6.588;2023-08-06T05:39:38;11.77;;;8.25;;
76259;SDS011;65076;52.362;6.588;2023-08-06T05:42:06;13.50;;;9.35;;
76259;SDS011;65076;52.362;6.588;2023-08-06T05:44:34;14.27;;;9.13;;
76259;SDS011;65076;52.362;6.588;2023-08-06T05:47:02;13.88;;;9.27;;
76259;SDS011;65076;52.362;6.588;2023-08-06T05:49:31;14.20;;;10.15;;
76259;SDS011;65076;52.362;6.588;2023-08-06T05:52:00;14.52;;;9.07;;
76259;SDS011;65076;52.362;6.588;2023-08-06T05:54:32;12.88;;;9.32;;
76259;SDS011;65076;52.362;6.588;2023-08-06T05:57:00;12.90;;;9.82;;
76259;SDS011;65076;52.362;6.588;2023-08-06T05:59:28;14.48;;;9.40;;
76259;SDS011;65076;52.362;6.588;2023-08-06T06:01:56;13.77;;;9.25;;
76259;SDS011;65076;52.362;6.588;2023-08-06T06:04:24;12.85;;;8.80;;
76259;SDS011;65076;52.362;6.588;2023-08-06T06:06:52;12.98;;;8.65;;
76259;SDS011;65076;52.362;6.588;2023-08-06T06:09:22;14.85;;;9.27;;
76259;SDS011;65076;52.362;6.588;2023-08-06T06:11:50;13.07;;;9.38;;
76259;SDS011;65076;52.362;6.588;2023-08-06T06:14:18;12.75;;;9.00;;
76259;SDS011;65076;52.362;6.588;2023-08-06T06:16:46;13.15;;;8.73;;
76259;SDS011;65076;52.362;6.588;2023-08-06T06:19:14;18.63;;;9.35;;
76259;SDS011;65076;52.362;6.588;2023-08-06T06:21:42;12.30;;;8.50;;
76259;SDS011;65076;52.362;6.588;2023-08-06T06:24:10;15.10;;;8.88;;
76259;SDS011;65076;52.362;6.588;2023-08-06T06:26:40;11.35;;;8.52;;
76259;SDS011;65076;52.362;6.588;2023-08-06T06:29:08;9.98;;;8.27;;
76259;SDS011;65076;52.362;6.588;2023-08-06T06:31:36;11.50;;;8.52;;
76259;SDS011;65076;52.362;6.588;2023-08-06T06:34:04;13.48;;;9.95;;
76259;SDS011;65076;52.362;6.588;2023-08-06T06:36:32;13.60;;;10.02;;
76259;SDS011;65076;52.362;6.588;2023-08-06T06:39:00;10.60;;;8.48;;
76259;SDS011;65076;52.362;6.588;2023-08-06T06:41:28;11.98;;;8.50;;
76259;SDS011;65076;52.362;6.588;2023-08-06T06:44:00;12.13;;;9.13;;
76259;SDS011;65076;52.362;6.588;2023-08-06T06:46:28;12.40;;;8.63;;
76259;SDS011;65076;52.362;6.588;2023-08-06T06:48:56;11.02;;;8.15;;
76259;SDS011;65076;52.362;6.588;2023-08-06T06:51:24;10.07;;;8.60;;
76259;SDS011;65076;52.362;6.588;2023-08-06T06:53:52;12.02;;;9.43;;
76259;SDS011;65076;52.362;6.588;2023-08-06T06:56:20;14.85;;;9.20;;
76259;SDS011;65076;52.362;6.588;2023-08-06T06:58:48;11.27;;;9.15;;
76259;SDS011;65076;52.362;6.588;2023-08-06T07:01:17;11.75;;;8.45;;
76259;SDS011;65076;52.362;6.588;2023-08-06T07:03:46;11.55;;;8.65;;
76259;SDS011;65076;52.362;6.588;2023-08-06T07:06:14;12.27;;;8.05;;
76259;SDS011;65076;52.362;6.588;2023-08-06T07:08:44;15.57;;;9.10;;
76259;SDS011;65076;52.362;6.588;2023-08-06T07:11:12;11.57;;;8.57;;
76259;SDS011;65076;52.362;6.588;2023-08-06T07:13:40;13.07;;;8.65;;
76259;SDS011;65076;52.362;6.588;2023-08-06T07:16:08;11.45;;;8.00;;
76259;SDS011;65076;52.362;6.588;2023-08-06T07:18:38;17.15;;;8.43;;
76259;SDS011;65076;52.362;6.588;2023-08-06T07:21:06;12.77;;;9.50;;
76259;SDS011;65076;52.362;6.588;2023-08-06T07:23:34;11.20;;;9.10;;
76259;SDS011;65076;52.362;6.588;2023-08-06T07:26:02;11.60;;;8.85;;
76259;SDS011;65076;52.362;6.588;2023-08-06T07:28:30;12.93;;;10.10;;
76259;SDS011;65076;52.362;6.588;2023-08-06T07:30:58;12.80;;;8.20;;
76259;SDS011;65076;52.362;6.588;2023-08-06T07:33:26;11.13;;;8.48;;
76259;SDS011;65076;52.362;6.588;2023-08-06T07:35:55;9.60;;;8.00;;
76259;SDS011;65076;52.362;6.588;2023-08-06T07:38:23;11.90;;;9.13;;
76259;SDS011;65076;52.362;6.588;2023-08-06T07:40:52;9.45;;;7.82;;
76259;SDS011;65076;52.362;6.588;2023-08-06T07:43:20;11.77;;;8.63;;
76259;SDS011;65076;52.362;6.588;2023-08-06T07:45:48;10.75;;;8.82;;
76259;SDS011;65076;52.362;6.588;2023-08-06T07:48:16;9.75;;;7.97;;
76259;SDS011;65076;52.362;6.588;2023-08-06T07:50:43;10.05;;;7.82;;
76259;SDS011;65076;52.362;6.588;2023-08-06T07:53:17;12.75;;;7.78;;
76259;SDS011;65076;52.362;6.588;2023-08-06T07:55:47;11.80;;;8.02;;
76259;SDS011;65076;52.362;6.588;2023-08-06T07:58:17;10.60;;;8.20;;
76259;SDS011;65076;52.362;6.588;2023-08-06T08:00:45;10.07;;;7.70;;
76259;SDS011;65076;52.362;6.588;2023-08-06T08:03:14;10.40;;;7.45;;
76259;SDS011;65076;52.362;6.588;2023-08-06T08:05:43;10.95;;;6.75;;
76259;SDS011;65076;52.362;6.588;2023-08-06T08:08:14;8.52;;;7.05;;
76259;SDS011;65076;52.362;6.588;2023-08-06T08:10:43;9.55;;;7.70;;
76259;SDS011;65076;52.362;6.588;2023-08-06T08:13:14;12.13;;;7.53;;
76259;SDS011;65076;52.362;6.588;2023-08-06T08:15:42;10.48;;;7.95;;
76259;SDS011;65076;52.362;6.588;2023-08-06T08:18:10;9.25;;;6.88;;
76259;SDS011;65076;52.362;6.588;2023-08-06T08:20:38;8.60;;;7.25;;
76259;SDS011;65076;52.362;6.588;2023-08-06T08:23:06;9.98;;;8.95;;
76259;SDS011;65076;52.362;6.588;2023-08-06T08:25:34;9.35;;;7.95;;
76259;SDS011;65076;52.362;6.588;2023-08-06T08:28:03;9.95;;;8.07;;
76259;SDS011;65076;52.362;6.588;2023-08-06T08:30:31;9.25;;;7.53;;
76259;SDS011;65076;52.362;6.588;2023-08-06T08:32:59;9.40;;;7.75;;
76259;SDS011;65076;52.362;6.588;2023-08-06T08:35:27;10.13;;;7.95;;
76259;SDS011;65076;52.362;6.588;2023-08-06T08:37:55;7.95;;;7.15;;
76259;SDS011;65076;52.362;6.588;2023-08-06T08:40:23;9.00;;;7.50;;
76259;SDS011;65076;52.362;6.588;2023-08-06T08:42:59;10.60;;;8.93;;
76259;SDS011;65076;52.362;6.588;2023-08-06T08:45:42;8.68;;;7.72;;
76259;SDS011;65076;52.362;6.588;2023-08-06T08:48:16;9.57;;;7.60;;
76259;SDS011;65076;52.362;6.588;2023-08-06T08:50:48;10.05;;;8.52;;
76259;SDS011;65076;52.362;6.588;2023-08-06T08:53:17;8.80;;;7.90;;
76259;SDS011;65076;52.362;6.588;2023-08-06T08:55:46;7.80;;;6.45;;
76259;SDS011;65076;52.362;6.588;2023-08-06T08:58:16;8.63;;;6.05;;
76259;SDS011;65076;52.362;6.588;2023-08-06T09:00:46;7.75;;;7.05;;
76259;SDS011;65076;52.362;6.588;2023-08-06T09:03:15;7.10;;;6.40;;
76259;SDS011;65076;52.362;6.588;2023-08-06T09:05:45;8.18;;;6.60;;
76259;SDS011;65076;52.362;6.588;2023-08-06T09:08:21;7.25;;;6.50;;
76259;SDS011;65076;52.362;6.588;2023-08-06T09:10:58;7.15;;;5.78;;
76259;SDS011;65076;52.362;6.588;2023-08-06T09:13:29;6.80;;;6.00;;
76259;SDS011;65076;52.362;6.588;2023-08-06T09:15:58;6.13;;;5.38;;
76259;SDS011;65076;52.362;6.588;2023-08-06T09:18:27;5.82;;;4.57;;
76259;SDS011;65076;52.362;6.588;2023-08-06T09:20:57;6.43;;;5.65;;
76259;SDS011;65076;52.362;6.588;2023-08-06T09:26:11;5.10;;;4.60;;
76259;SDS011;65076;52.362;6.588;2023-08-06T09:28:42;3.70;;;3.40;;
76259;SDS011;65076;52.362;6.588;2023-08-06T09:31:12;4.68;;;4.28;;
76259;SDS011;65076;52.362;6.588;2023-08-06T09:33:40;5.35;;;4.35;;
76259;SDS011;65076;52.362;6.588;2023-08-06T09:36:10;3.97;;;3.33;;
76259;SDS011;65076;52.362;6.588;2023-08-06T09:38:38;3.97;;;3.63;;
76259;SDS011;65076;52.362;6.588;2023-08-06T09:41:08;4.60;;;4.00;;
76259;SDS011;65076;52.362;6.588;2023-08-06T09:43:40;4.93;;;4.03;;
76259;SDS011;65076;52.362;6.588;2023-08-06T09:46:14;7.45;;;5.05;;
76259;SDS011;65076;52.362;6.588;2023-08-06T09:48:46;5.70;;;4.60;;
76259;SDS011;65076;52.362;6.588;2023-08-06T09:51:15;5.65;;;5.00;;
76259;SDS011;65076;52.362;6.588;2023-08-06T09:53:44;5.40;;;4.75;;
76259;SDS011;65076;52.362;6.588;2023-08-06T09:56:17;5.60;;;5.10;;
76259;SDS011;65076;52.362;6.588;2023-08-06T10:01:17;6.78;;;5.15;;
76259;SDS011;65076;52.362;6.588;2023-08-06T10:03:49;6.20;;;5.60;;
76259;SDS011;65076;52.362;6.588;2023-08-06T10:06:21;4.38;;;3.97;;
76259;SDS011;65076;52.362;6.588;2023-08-06T10:08:52;4.82;;;4.32;;
76259;SDS011;65076;52.362;6.588;2023-08-06T10:11:20;4.35;;;3.58;;
76259;SDS011;65076;52.362;6.588;2023-08-06T10:13:52;4.72;;;3.72;;
76259;SDS011;65076;52.362;6.588;2023-08-06T10:16:31;4.50;;;4.10;;
76259;SDS011;65076;52.362;6.588;2023-08-06T10:19:01;5.15;;;4.65;;
76259;SDS011;65076;52.362;6.588;2023-08-06T10:21:32;5.15;;;4.20;;
76259;SDS011;65076;52.362;6.588;2023-08-06T10:24:00;6.45;;;4.38;;
76259;SDS011;65076;52.362;6.588;2023-08-06T10:26:29;6.10;;;5.18;;
76259;SDS011;65076;52.362;6.588;2023-08-06T10:28:57;6.80;;;6.20;;
76259;SDS011;65076;52.362;6.588;2023-08-06T10:37:21;7.15;;;6.38;;
76259;SDS011;65076;52.362;6.588;2023-08-06T10:39:49;6.45;;;5.40;;
76259;SDS011;65076;52.362;6.588;2023-08-06T10:42:21;7.30;;;6.60;;
76259;SDS011;65076;52.362;6.588;2023-08-06T10:45:12;9.55;;;8.07;;
76259;SDS011;65076;52.362;6.588;2023-08-06T10:47:44;11.63;;;8.63;;
76259;SDS011;65076;52.362;6.588;2023-08-06T10:50:14;10.80;;;8.20;;
76259;SDS011;65076;52.362;6.588;2023-08-06T10:52:44;7.97;;;6.65;;
76259;SDS011;65076;52.362;6.588;2023-08-06T10:55:13;9.02;;;7.65;;
76259;SDS011;65076;52.362;6.588;2023-08-06T10:57:42;9.32;;;8.38;;
76259;SDS011;65076;52.362;6.588;2023-08-06T11:00:10;8.50;;;6.95;;
76259;SDS011;65076;52.362;6.588;2023-08-06T11:02:44;7.95;;;6.43;;
76259;SDS011;65076;52.362;6.588;2023-08-06T11:05:14;9.00;;;7.40;;
76259;SDS011;65076;52.362;6.588;2023-08-06T11:07:43;8.32;;;7.40;;
76259;SDS011;65076;52.362;6.588;2023-08-06T11:10:11;9.20;;;8.20;;
76259;SDS011;65076;52.362;6.588;2023-08-06T11:15:09;9.60;;;8.30;;
76259;SDS011;65076;52.362;6.588;2023-08-06T11:17:39;12.82;;;7.85;;
76259;SDS011;65076;52.362;6.588;2023-08-06T11:20:10;8.57;;;6.57;;
76259;SDS011;65076;52.362;6.588;2023-08-06T11:22:42;12.02;;;8.35;;
76259;SDS011;65076;52.362;6.588;2023-08-06T11:25:11;7.68;;;6.85;;
76259;SDS011;65076;52.362;6.588;2023-08-06T11:27:39;8.77;;;7.30;;
76259;SDS011;65076;52.362;6.588;2023-08-06T11:30:07;7.85;;;6.68;;
76259;SDS011;65076;52.362;6.588;2023-08-06T11:32:45;6.53;;;5.63;;
76259;SDS011;65076;52.362;6.588;2023-08-06T11:35:16;6.65;;;5.95;;
76259;SDS011;65076;52.362;6.588;2023-08-06T11:37:44;5.63;;;5.13;;
76259;SDS011;65076;52.362;6.588;2023-08-06T11:40:14;6.18;;;5.57;;
76259;SDS011;65076;52.362;6.588;2023-08-06T11:42:43;5.97;;;5.30;;
76259;SDS011;65076;52.362;6.588;2023-08-06T11:45:14;6.03;;;5.43;;
76259;SDS011;65076;52.362;6.588;2023-08-06T11:47:42;6.22;;;5.30;;
76259;SDS011;65076;52.362;6.588;2023-08-06T11:50:23;6.47;;;5.88;;
76259;SDS011;65076;52.362;6.588;2023-08-06T11:52:53;6.13;;;5.53;;
76259;SDS011;65076;52.362;6.588;2023-08-06T11:55:24;5.93;;;5.20;;
76259;SDS011;65076;52.362;6.588;2023-08-06T11:57:52;5.45;;;4.95;;
76259;SDS011;65076;52.362;6.588;2023-08-06T12:00:22;4.68;;;4.15;;
76259;SDS011;65076;52.362;6.588;2023-08-06T12:02:52;5.13;;;4.20;;
76259;SDS011;65076;52.362;6.588;2023-08-06T12:05:23;6.35;;;5.07;;
76259;SDS011;65076;52.362;6.588;2023-08-06T12:08:00;5.57;;;5.05;;
76259;SDS011;65076;52.362;6.588;2023-08-06T12:10:30;5.30;;;4.75;;
76259;SDS011;65076;52.362;6.588;2023-08-06T12:12:59;5.20;;;4.65;;
76259;SDS011;65076;52.362;6.588;2023-08-06T12:15:29;5.28;;;4.47;;
76259;SDS011;65076;52.362;6.588;2023-08-06T12:17:59;4.95;;;4.53;;
76259;SDS011;65076;52.362;6.588;2023-08-06T12:20:29;4.38;;;3.75;;
76259;SDS011;65076;52.362;6.588;2023-08-06T12:22:58;5.53;;;4.65;;
76259;SDS011;65076;52.362;6.588;2023-08-06T12:25:26;5.03;;;4.13;;
76259;SDS011;65076;52.362;6.588;2023-08-06T12:27:55;3.95;;;3.55;;
76259;SDS011;65076;52.362;6.588;2023-08-06T12:30:24;4.20;;;3.30;;
76259;SDS011;65076;52.362;6.588;2023-08-06T12:32:52;3.88;;;3.58;;
76259;SDS011;65076;52.362;6.588;2023-08-06T12:35:20;6.53;;;3.95;;
76259;SDS011;65076;52.362;6.588;2023-08-06T12:37:49;4.25;;;3.85;;
76259;SDS011;65076;52.362;6.588;2023-08-06T12:40:20;5.43;;;3.72;;
76259;SDS011;65076;52.362;6.588;2023-08-06T12:43:02;4.38;;;3.72;;
76259;SDS011;65076;52.362;6.588;2023-08-06T12:45:30;3.67;;;3.38;;
76259;SDS011;65076;52.362;6.588;2023-08-06T12:47:58;4.70;;;3.90;;
76259;SDS011;65076;52.362;6.588;2023-08-06T12:50:26;3.50;;;3.20;;
76259;SDS011;65076;52.362;6.588;2023-08-06T12:52:55;4.10;;;3.40;;
76259;SDS011;65076;52.362;6.588;2023-08-06T12:55:23;3.08;;;2.63;;
76259;SDS011;65076;52.362;6.588;2023-08-06T12:57:51;5.35;;;3.20;;
76259;SDS011;65076;52.362;6.588;2023-08-06T13:00:24;2.95;;;2.70;;
76259;SDS011;65076;52.362;6.588;2023-08-06T13:02:54;3.67;;;2.95;;
76259;SDS011;65076;52.362;6.588;2023-08-06T13:05:22;3.55;;;2.85;;
76259;SDS011;65076;52.362;6.588;2023-08-06T13:07:50;3.17;;;2.88;;
76259;SDS011;65076;52.362;6.588;2023-08-06T13:10:20;2.85;;;2.60;;
76259;SDS011;65076;52.362;6.588;2023-08-06T13:12:49;2.50;;;2.30;;
76259;SDS011;65076;52.362;6.588;2023-08-06T13:15:17;2.50;;;2.30;;
76259;SDS011;65076;52.362;6.588;2023-08-06T13:17:47;2.50;;;2.15;;
76259;SDS011;65076;52.362;6.588;2023-08-06T13:20:15;3.25;;;2.10;;
76259;SDS011;65076;52.362;6.588;2023-08-06T13:22:46;3.22;;;2.42;;
76259;SDS011;65076;52.362;6.588;2023-08-06T13:25:17;2.63;;;2.40;;
76259;SDS011;65076;52.362;6.588;2023-08-06T13:27:48;2.88;;;2.45;;
76259;SDS011;65076;52.362;6.588;2023-08-06T13:30:16;3.53;;;2.40;;
76259;SDS011;65076;52.362;6.588;2023-08-06T13:32:45;2.75;;;2.08;;
76259;SDS011;65076;52.362;6.588;2023-08-06T13:35:13;3.22;;;2.50;;
76259;SDS011;65076;52.362;6.588;2023-08-06T13:37:42;2.78;;;2.13;;
76259;SDS011;65076;52.362;6.588;2023-08-06T13:40:10;2.80;;;2.13;;
76259;SDS011;65076;52.362;6.588;2023-08-06T13:42:40;2.50;;;2.30;;
76259;SDS011;65076;52.362;6.588;2023-08-06T13:45:09;3.28;;;2.30;;
76259;SDS011;65076;52.362;6.588;2023-08-06T13:47:37;3.05;;;2.10;;
76259;SDS011;65076;52.362;6.588;2023-08-06T13:50:05;3.30;;;2.38;;
76259;SDS011;65076;52.362;6.588;2023-08-06T13:52:34;2.60;;;2.40;;
76259;SDS011;65076;52.362;6.588;2023-08-06T13:55:02;2.95;;;2.42;;
76259;SDS011;65076;52.362;6.588;2023-08-06T13:57:31;2.38;;;2.17;;
76259;SDS011;65076;52.362;6.588;2023-08-06T14:00:01;2.42;;;2.00;;
76259;SDS011;65076;52.362;6.588;2023-08-06T14:02:30;6.35;;;2.70;;
76259;SDS011;65076;52.362;6.588;2023-08-06T14:04:58;3.00;;;2.70;;
76259;SDS011;65076;52.362;6.588;2023-08-06T14:07:25;2.78;;;2.58;;
76259;SDS011;65076;52.362;6.588;2023-08-06T14:09:53;2.10;;;1.20;;
76259;SDS011;65076;52.362;6.588;2023-08-06T14:14:51;1.70;;;1.13;;
76259;SDS011;65076;52.362;6.588;2023-08-06T14:17:20;3.90;;;2.35;;
76259;SDS011;65076;52.362;6.588;2023-08-06T14:19:48;4.50;;;1.83;;
76259;SDS011;65076;52.362;6.588;2023-08-06T14:22:17;4.25;;;2.17;;
76259;SDS011;65076;52.362;6.588;2023-08-06T14:24:44;3.78;;;1.83;;
76259;SDS011;65076;52.362;6.588;2023-08-06T14:27:13;3.35;;;2.10;;
76259;SDS011;65076;52.362;6.588;2023-08-06T14:29:41;3.42;;;1.50;;
76259;SDS011;65076;52.362;6.588;2023-08-06T14:32:09;1.92;;;1.48;;
76259;SDS011;65076;52.362;6.588;2023-08-06T14:34:39;4.05;;;1.75;;
76259;SDS011;65076;52.362;6.588;2023-08-06T14:37:07;2.63;;;2.28;;
76259;SDS011;65076;52.362;6.588;2023-08-06T14:39:36;3.97;;;2.20;;
76259;SDS011;65076;52.362;6.588;2023-08-06T14:42:14;2.92;;;2.47;;
76259;SDS011;65076;52.362;6.588;2023-08-06T14:44:42;2.88;;;2.28;;
76259;SDS011;65076;52.362;6.588;2023-08-06T14:47:10;4.60;;;2.33;;
76259;SDS011;65076;52.362;6.588;2023-08-06T14:49:40;3.38;;;2.30;;
76259;SDS011;65076;52.362;6.588;2023-08-06T14:52:08;3.47;;;2.70;;
76259;SDS011;65076;52.362;6.588;2023-08-06T14:54:35;4.13;;;3.08;;
76259;SDS011;65076;52.362;6.588;2023-08-06T14:57:03;4.38;;;3.35;;
76259;SDS011;65076;52.362;6.588;2023-08-06T14:59:33;5.20;;;3.97;;
76259;SDS011;65076;52.362;6.588;2023-08-06T15:02:02;7.60;;;4.10;;
76259;SDS011;65076;52.362;6.588;2023-08-06T15:04:31;6.85;;;5.03;;
76259;SDS011;65076;52.362;6.588;2023-08-06T15:07:01;7.45;;;4.80;;
76259;SDS011;65076;52.362;6.588;2023-08-06T15:09:29;6.53;;;4.45;;
76259;SDS011;65076;52.362;6.588;2023-08-06T15:12:06;5.78;;;4.43;;
76259;SDS011;65076;52.362;6.588;2023-08-06T15:14:35;6.60;;;5.30;;